createdAt,value
2022-12-25T00:01:09.871Z,8.33
2022-12-25T00:03:37.547Z,8.31
2022-12-25T00:06:04.548Z,8.32
2022-12-25T00:08:31.767Z,8.30
2022-12-25T00:11:08.211Z,8.31
2022-12-25T00:13:35.249Z,8.28
2022-12-25T00:16:11.294Z,8.27
2022-12-25T00:18:38.131Z,8.25
2022-12-25T00:21:06.663Z,8.26
2022-12-25T00:23:35.023Z,8.25
2022-12-25T00:26:06.369Z,8.25
2022-12-25T00:28:33.210Z,8.23
2022-12-25T00:31:00.157Z,8.22
2022-12-25T00:33:27.056Z,8.22
2022-12-25T00:35:59.161Z,8.21
2022-12-25T00:38:27.368Z,8.19
2022-12-25T00:40:54.508Z,8.18
2022-12-25T00:43:21.596Z,8.16
2022-12-25T00:46:01.392Z,8.15
2022-12-25T00:48:29.432Z,8.12
2022-12-25T00:50:59.729Z,8.09
2022-12-25T00:53:28.376Z,8.05
2022-12-25T00:56:01.707Z,8.03
2022-12-25T00:58:31.007Z,8.01
2022-12-25T01:00:58.040Z,7.99
2022-12-25T01:03:25.401Z,7.96
2022-12-25T01:05:58.670Z,7.95
2022-12-25T01:08:26.442Z,7.89
2022-12-25T01:10:58.569Z,7.86
2022-12-25T01:13:26.587Z,7.82
2022-12-25T01:15:54.300Z,7.81
2022-12-25T01:18:23.390Z,7.77
2022-12-25T01:20:50.569Z,7.74
2022-12-25T01:23:17.461Z,7.72
2022-12-25T01:25:44.321Z,7.71
2022-12-25T01:28:11.098Z,7.69
2022-12-25T01:30:37.876Z,7.66
2022-12-25T01:33:04.773Z,7.65
2022-12-25T01:35:31.535Z,7.61
2022-12-25T01:37:58.295Z,7.60
2022-12-25T01:40:25.060Z,7.59
2022-12-25T01:42:51.862Z,7.57
2022-12-25T01:45:47.711Z,7.56
2022-12-25T01:48:20.476Z,7.56
2022-12-25T01:50:55.295Z,7.56
2022-12-25T01:53:23.000Z,7.56
2022-12-25T01:55:55.142Z,7.56
2022-12-25T01:58:22.234Z,7.56
2022-12-25T02:00:50.927Z,7.57
2022-12-25T02:03:19.285Z,7.58
2022-12-25T02:05:47.346Z,7.57
2022-12-25T02:08:17.432Z,7.57
2022-12-25T02:10:44.737Z,7.57
2022-12-25T02:13:14.490Z,7.56
2022-12-25T02:16:16.019Z,7.54
2022-12-25T02:18:52.214Z,7.52
2022-12-25T02:22:01.949Z,7.47
2022-12-25T02:25:16.897Z,7.43
2022-12-25T02:28:11.235Z,7.41
2022-12-25T02:30:46.488Z,7.37
2022-12-25T02:33:48.958Z,7.38
2022-12-25T02:36:23.370Z,7.34
2022-12-25T02:39:14.548Z,7.33
2022-12-25T02:41:45.578Z,7.30
2022-12-25T02:44:51.139Z,7.31
2022-12-25T02:47:37.433Z,7.27
2022-12-25T02:50:25.369Z,7.24
2022-12-25T02:53:12.779Z,7.22
2022-12-25T02:56:00.012Z,7.19
2022-12-25T02:58:46.403Z,7.18
2022-12-25T03:01:37.959Z,7.19
2022-12-25T03:04:29.365Z,7.23
2022-12-25T03:07:12.320Z,7.29
2022-12-25T03:10:04.081Z,7.37
2022-12-25T03:12:56.983Z,7.47
2022-12-25T03:15:42.699Z,7.54
2022-12-25T03:18:17.784Z,7.64
2022-12-25T03:21:03.091Z,7.71
2022-12-25T03:23:52.327Z,7.78
2022-12-25T03:26:37.769Z,7.83
2022-12-25T03:29:04.857Z,7.89
2022-12-25T03:31:50.717Z,7.95
2022-12-25T03:34:54.217Z,7.97
2022-12-25T03:37:45.541Z,7.98
2022-12-25T03:41:16.096Z,8.01
2022-12-25T03:44:19.095Z,8.04
2022-12-25T03:47:17.993Z,8.04
2022-12-25T03:50:10.840Z,8.05
2022-12-25T03:52:57.718Z,8.03
2022-12-25T03:55:45.189Z,7.99
2022-12-25T03:58:40.044Z,7.97
2022-12-25T04:01:25.490Z,7.88
2022-12-25T04:04:10.682Z,7.85
2022-12-25T04:06:56.473Z,7.83
2022-12-25T04:09:42.168Z,7.84
2022-12-25T04:12:27.704Z,7.84
2022-12-25T04:15:12.799Z,7.83
2022-12-25T04:17:57.956Z,7.85
2022-12-25T04:21:03.158Z,7.85
2022-12-25T04:23:48.560Z,7.80
2022-12-25T04:26:34.085Z,7.80
2022-12-25T04:29:19.371Z,7.84
2022-12-25T04:32:04.562Z,7.89
2022-12-25T04:34:54.239Z,7.91
2022-12-25T04:37:21.040Z,7.95
2022-12-25T04:39:47.953Z,7.99
2022-12-25T04:42:15.819Z,7.99
2022-12-25T04:44:42.623Z,8.01
2022-12-25T04:47:11.657Z,8.03
2022-12-25T04:49:39.201Z,8.05
2022-12-25T04:52:05.968Z,8.07
2022-12-25T04:54:32.803Z,8.08
2022-12-25T04:56:59.582Z,8.12
2022-12-25T04:59:26.328Z,8.16
2022-12-25T05:01:53.168Z,8.19
2022-12-25T05:04:20.049Z,8.20
2022-12-25T05:06:46.787Z,8.20
2022-12-25T05:09:13.613Z,8.20
2022-12-25T05:11:40.355Z,8.21
2022-12-25T05:14:07.132Z,8.23
2022-12-25T05:16:34.040Z,8.26
2022-12-25T05:19:00.922Z,8.28
2022-12-25T05:21:27.683Z,8.31
2022-12-25T05:23:54.504Z,8.37
2022-12-25T05:26:25.243Z,8.43
2022-12-25T05:28:52.180Z,8.49
2022-12-25T05:31:19.924Z,8.57
2022-12-25T05:33:50.621Z,8.63
2022-12-25T05:36:17.485Z,8.69
2022-12-25T05:38:44.476Z,8.75
2022-12-25T05:41:11.287Z,8.80
2022-12-25T05:43:38.037Z,8.86
2022-12-25T05:46:07.353Z,8.92
2022-12-25T05:48:36.820Z,8.97
2022-12-25T05:51:06.812Z,9.03
2022-12-25T05:53:33.778Z,9.08
2022-12-25T05:56:03.456Z,9.14
2022-12-25T05:58:31.692Z,9.17
2022-12-25T06:00:58.487Z,9.21
2022-12-25T06:03:26.078Z,9.26
2022-12-25T06:05:53.160Z,9.30
2022-12-25T06:08:20.040Z,9.36
2022-12-25T06:10:47.156Z,9.38
2022-12-25T06:13:13.972Z,9.42
2022-12-25T06:15:41.952Z,9.44
2022-12-25T06:18:08.850Z,9.44
2022-12-25T06:20:36.154Z,9.49
2022-12-25T06:23:02.963Z,9.50
2022-12-25T06:25:29.728Z,9.54
2022-12-25T06:27:56.464Z,9.56
2022-12-25T06:30:23.348Z,9.58
2022-12-25T06:32:50.147Z,9.60
2022-12-25T06:35:16.970Z,9.64
2022-12-25T06:37:43.766Z,9.65
2022-12-25T06:40:10.884Z,9.68
2022-12-25T06:42:37.677Z,9.67
2022-12-25T06:45:04.954Z,9.69
2022-12-25T06:47:31.744Z,9.70
2022-12-25T06:49:58.496Z,9.70
2022-12-25T06:52:25.261Z,9.72
2022-12-25T06:54:52.139Z,9.70
2022-12-25T06:57:19.377Z,9.70
2022-12-25T06:59:49.903Z,9.70
2022-12-25T07:02:24.087Z,9.70
2022-12-25T07:04:52.045Z,9.67
2022-12-25T07:07:18.809Z,9.66
2022-12-25T07:09:45.623Z,9.63
2022-12-25T07:12:23.324Z,9.63
2022-12-25T07:14:50.508Z,9.59
2022-12-25T07:17:18.191Z,9.57
2022-12-25T07:19:46.858Z,9.54
2022-12-25T07:22:15.004Z,9.53
2022-12-25T07:24:42.370Z,9.52
2022-12-25T07:27:09.251Z,9.51
2022-12-25T07:29:36.041Z,9.50
2022-12-25T07:32:02.996Z,9.52
2022-12-25T07:34:29.943Z,9.52
2022-12-25T07:36:56.698Z,9.54
2022-12-25T07:39:23.715Z,9.57
2022-12-25T07:41:51.167Z,9.56
2022-12-25T07:44:18.205Z,9.55
2022-12-25T07:46:45.016Z,9.54
2022-12-25T07:49:12.279Z,9.51
2022-12-25T07:51:39.396Z,9.50
2022-12-25T07:54:06.443Z,9.51
2022-12-25T07:56:33.523Z,9.49
2022-12-25T07:59:00.354Z,9.49
2022-12-25T08:01:28.515Z,9.48
2022-12-25T08:04:01.965Z,9.50
2022-12-25T08:06:34.471Z,9.51
2022-12-25T08:09:12.898Z,9.53
2022-12-25T08:11:44.836Z,9.55
2022-12-25T08:14:11.609Z,9.59
2022-12-25T08:16:41.469Z,9.67
2022-12-25T08:19:09.181Z,9.73
2022-12-25T08:21:35.966Z,9.78
2022-12-25T08:24:03.195Z,9.86
2022-12-25T08:26:30.019Z,9.93
2022-12-25T08:28:56.883Z,9.99
2022-12-25T08:31:27.968Z,10.04
2022-12-25T08:33:57.807Z,10.08
2022-12-25T08:36:25.565Z,10.13
2022-12-25T08:38:55.726Z,10.17
2022-12-25T08:41:27.642Z,10.21
2022-12-25T08:43:54.649Z,10.27
2022-12-25T08:46:21.608Z,10.32
2022-12-25T08:48:50.315Z,10.37
2022-12-25T08:51:22.999Z,10.40
2022-12-25T08:53:51.761Z,10.44
2022-12-25T08:56:19.730Z,10.46
2022-12-25T08:58:46.992Z,10.49
2022-12-25T09:01:14.294Z,10.51
2022-12-25T09:03:41.368Z,10.52
2022-12-25T09:06:11.777Z,10.54
2022-12-25T09:08:44.208Z,10.54
2022-12-25T09:11:15.046Z,10.56
2022-12-25T09:13:42.255Z,10.57
2022-12-25T09:16:13.602Z,10.58
2022-12-25T09:18:40.745Z,10.60
2022-12-25T09:21:11.539Z,10.64
2022-12-25T09:23:38.703Z,10.66
2022-12-25T09:26:07.952Z,10.70
2022-12-25T09:28:35.049Z,10.73
2022-12-25T09:31:02.888Z,10.74
2022-12-25T09:33:29.770Z,10.76
2022-12-25T09:36:03.337Z,10.81
2022-12-25T09:38:30.465Z,10.82
2022-12-25T09:41:23.483Z,10.86
2022-12-25T09:44:09.374Z,10.90
2022-12-25T09:46:47.852Z,10.94
2022-12-25T09:49:52.739Z,10.98
2022-12-25T09:52:26.491Z,11.00
2022-12-25T09:55:27.202Z,11.04
2022-12-25T09:57:58.445Z,11.06
2022-12-25T10:00:44.257Z,11.08
2022-12-25T10:03:41.864Z,11.08
2022-12-25T10:06:22.918Z,11.10
2022-12-25T10:09:08.421Z,11.12
2022-12-25T10:12:05.903Z,11.15
2022-12-25T10:15:22.143Z,11.15
2022-12-25T10:18:19.677Z,11.16
2022-12-25T10:20:52.867Z,11.17
2022-12-25T10:23:26.314Z,11.20
2022-12-25T10:25:54.487Z,11.21
2022-12-25T10:28:37.706Z,11.24
2022-12-25T10:31:22.677Z,11.25
2022-12-25T10:33:51.992Z,11.26
2022-12-25T10:36:26.717Z,11.29
2022-12-25T10:38:54.424Z,11.31
2022-12-25T10:41:53.534Z,11.37
2022-12-25T10:44:24.458Z,11.37
2022-12-25T10:47:00.520Z,11.40
2022-12-25T10:49:39.217Z,11.42
2022-12-25T10:52:25.358Z,11.43
2022-12-25T10:54:52.868Z,11.44
2022-12-25T10:57:22.992Z,11.48
2022-12-25T10:59:55.977Z,11.50
2022-12-25T11:02:45.344Z,11.54
2022-12-25T11:05:30.313Z,11.57
2022-12-25T11:08:00.121Z,11.59
2022-12-25T11:10:44.057Z,11.62
2022-12-25T11:13:25.171Z,11.64
2022-12-25T11:16:10.866Z,11.67
2022-12-25T11:18:53.599Z,11.68
2022-12-25T11:21:28.888Z,11.71
2022-12-25T11:24:15.985Z,11.74
2022-12-25T11:26:58.325Z,11.76
2022-12-25T11:29:47.453Z,11.78
2022-12-25T11:32:41.021Z,11.80
2022-12-25T11:35:15.843Z,11.81
2022-12-25T11:37:49.562Z,11.85
2022-12-25T11:40:34.575Z,11.90
2022-12-25T11:43:23.785Z,11.96
2022-12-25T11:46:16.845Z,12.01
2022-12-25T11:48:49.956Z,12.07
2022-12-25T11:51:17.679Z,12.11
2022-12-25T11:53:51.639Z,12.19
2022-12-25T11:56:23.431Z,12.25
2022-12-25T11:58:53.762Z,12.30
2022-12-25T12:01:37.362Z,12.37
2022-12-25T12:04:29.084Z,12.40
2022-12-25T12:07:18.155Z,12.44
2022-12-25T12:10:04.482Z,12.46
2022-12-25T12:12:53.121Z,12.48
2022-12-25T12:15:41.482Z,12.51
2022-12-25T12:18:26.535Z,12.52
2022-12-25T12:21:17.918Z,12.51
2022-12-25T12:23:54.328Z,12.48
2022-12-25T12:26:24.541Z,12.46
2022-12-25T12:28:55.633Z,12.45
2022-12-25T12:31:22.934Z,12.42
2022-12-25T12:33:57.289Z,12.40
2022-12-25T12:36:35.596Z,12.34
2022-12-25T12:39:05.016Z,12.30
2022-12-25T12:41:46.311Z,12.30
2022-12-25T12:44:16.141Z,12.27
2022-12-25T12:46:54.101Z,12.28
2022-12-25T12:49:30.138Z,12.27
2022-12-25T12:52:23.916Z,12.26
2022-12-25T12:55:03.377Z,12.22
2022-12-25T12:57:34.415Z,12.20
2022-12-25T13:00:08.636Z,12.20
2022-12-25T13:03:02.978Z,12.20
2022-12-25T13:05:41.303Z,12.19
2022-12-25T13:08:23.324Z,12.19
2022-12-25T13:11:04.697Z,12.18
2022-12-25T13:13:39.245Z,12.18
2022-12-25T13:16:13.252Z,12.18
2022-12-25T13:18:40.256Z,12.18
2022-12-25T13:21:07.524Z,12.16
2022-12-25T13:23:37.415Z,12.16
2022-12-25T13:26:17.198Z,12.16
2022-12-25T13:28:47.039Z,12.13
2022-12-25T13:31:15.724Z,12.11
2022-12-25T13:34:01.156Z,12.11
2022-12-25T13:36:34.269Z,12.07
2022-12-25T13:39:01.450Z,12.05
2022-12-25T13:41:59.293Z,12.04
2022-12-25T13:44:30.218Z,12.01
2022-12-25T13:46:57.001Z,12.00
2022-12-25T13:49:24.398Z,11.97
2022-12-25T13:51:51.452Z,11.99
2022-12-25T13:54:19.127Z,11.96
2022-12-25T13:56:53.476Z,11.95
2022-12-25T13:59:22.341Z,11.90
2022-12-25T14:01:50.944Z,11.88
2022-12-25T14:04:23.883Z,11.87
2022-12-25T14:06:52.469Z,11.87
2022-12-25T14:09:19.633Z,11.88
2022-12-25T14:11:51.579Z,11.89
2022-12-25T14:14:24.703Z,11.90
2022-12-25T14:16:56.634Z,11.88
2022-12-25T14:19:32.510Z,11.88
2022-12-25T14:22:16.510Z,11.84
2022-12-25T14:24:43.305Z,11.83
2022-12-25T14:27:30.424Z,11.82
2022-12-25T14:30:00.375Z,11.82
2022-12-25T14:32:30.909Z,11.79
2022-12-25T14:35:03.382Z,11.79
2022-12-25T14:37:32.606Z,11.79
2022-12-25T14:40:05.041Z,11.78
2022-12-25T14:42:35.022Z,11.79
2022-12-25T14:45:24.949Z,11.79
2022-12-25T14:47:55.183Z,11.80
2022-12-25T14:50:29.106Z,11.80
2022-12-25T14:52:56.589Z,11.80
2022-12-25T14:55:29.509Z,11.82
2022-12-25T14:58:05.882Z,11.84
2022-12-25T15:00:38.901Z,11.85
2022-12-25T15:03:17.636Z,11.86
2022-12-25T15:05:44.562Z,11.87
2022-12-25T15:08:11.180Z,11.86
2022-12-25T15:10:59.444Z,11.87
2022-12-25T15:13:27.890Z,11.84
2022-12-25T15:16:13.623Z,11.87
2022-12-25T15:18:44.360Z,11.86
2022-12-25T15:21:30.381Z,11.86
2022-12-25T15:23:59.069Z,11.85
2022-12-25T15:26:29.346Z,11.87
2022-12-25T15:28:56.222Z,11.88
2022-12-25T15:31:30.589Z,11.88
2022-12-25T15:34:01.335Z,11.89
2022-12-25T15:36:28.536Z,11.91
2022-12-25T15:38:55.983Z,11.91
2022-12-25T15:41:49.253Z,11.92
2022-12-25T15:44:16.471Z,11.91
2022-12-25T15:46:43.454Z,11.91
2022-12-25T15:49:10.883Z,11.93
2022-12-25T15:51:37.852Z,11.93
2022-12-25T15:54:04.944Z,11.94
2022-12-25T15:56:46.790Z,11.98
2022-12-25T15:59:16.223Z,11.98
2022-12-25T16:01:56.355Z,12.00
2022-12-25T16:04:25.116Z,11.99
2022-12-25T16:06:52.598Z,12.01
2022-12-25T16:09:20.446Z,12.01
2022-12-25T16:11:48.846Z,12.02
2022-12-25T16:14:15.653Z,12.03
2022-12-25T16:16:42.461Z,12.04
2022-12-25T16:19:09.317Z,12.03
2022-12-25T16:21:46.387Z,12.03
2022-12-25T16:24:14.103Z,12.05
2022-12-25T16:26:41.666Z,12.05
2022-12-25T16:29:08.495Z,12.06
2022-12-25T16:31:37.275Z,12.06
2022-12-25T16:34:05.720Z,12.07
2022-12-25T16:36:33.272Z,12.07
2022-12-25T16:39:00.097Z,12.05
2022-12-25T16:41:26.902Z,12.06
2022-12-25T16:43:53.674Z,12.05
2022-12-25T16:46:22.161Z,12.04
2022-12-25T16:48:49.055Z,12.04
2022-12-25T16:51:19.337Z,12.05
2022-12-25T16:53:46.429Z,12.03
2022-12-25T16:56:20.508Z,12.05
2022-12-25T16:58:48.062Z,12.03
2022-12-25T17:01:19.129Z,12.05
2022-12-25T17:03:47.266Z,12.06
2022-12-25T17:06:32.275Z,12.06
2022-12-25T17:09:00.454Z,12.05
2022-12-25T17:11:30.020Z,12.05
2022-12-25T17:14:03.423Z,12.05
2022-12-25T17:16:34.389Z,12.04
2022-12-25T17:19:05.084Z,12.05
2022-12-25T17:21:36.600Z,12.05
2022-12-25T17:24:04.506Z,12.05
2022-12-25T17:26:32.419Z,12.04
2022-12-25T17:28:59.522Z,12.04
2022-12-25T17:31:26.327Z,12.04
2022-12-25T17:33:53.123Z,12.04
2022-12-25T17:36:21.685Z,12.05
2022-12-25T17:38:49.243Z,12.06
2022-12-25T17:41:21.005Z,12.06
2022-12-25T17:43:48.140Z,12.07
2022-12-25T17:46:18.690Z,12.07
2022-12-25T17:48:46.689Z,12.07
2022-12-25T17:51:16.892Z,12.07
2022-12-25T17:53:47.896Z,12.10
2022-12-25T17:56:16.017Z,12.10
2022-12-25T17:58:43.045Z,12.09
2022-12-25T18:01:15.945Z,12.11
2022-12-25T18:03:44.193Z,12.13
2022-12-25T18:06:16.040Z,12.14
2022-12-25T18:08:45.024Z,12.14
2022-12-25T18:11:23.154Z,12.15
2022-12-25T18:13:52.144Z,12.15
2022-12-25T18:16:23.081Z,12.17
2022-12-25T18:18:52.583Z,12.18
2022-12-25T18:21:21.932Z,12.20
2022-12-25T18:23:50.078Z,12.22
2022-12-25T18:26:18.731Z,12.24
2022-12-25T18:28:45.569Z,12.26
2022-12-25T18:31:19.848Z,12.28
2022-12-25T18:33:47.418Z,12.25
2022-12-25T18:36:19.924Z,12.26
2022-12-25T18:38:48.223Z,12.27
2022-12-25T18:41:15.391Z,12.30
2022-12-25T18:43:54.194Z,12.30
2022-12-25T18:46:26.182Z,12.31
2022-12-25T18:48:55.030Z,12.33
2022-12-25T18:51:22.116Z,12.36
2022-12-25T18:53:48.901Z,12.39
2022-12-25T18:56:18.171Z,12.41
2022-12-25T18:58:46.503Z,12.44
2022-12-25T19:01:22.405Z,12.47
2022-12-25T19:03:50.543Z,12.46
2022-12-25T19:06:20.469Z,12.48
2022-12-25T19:08:47.333Z,12.48
2022-12-25T19:11:14.282Z,12.50
2022-12-25T19:13:41.095Z,12.51
2022-12-25T19:16:08.002Z,12.51
2022-12-25T19:18:34.805Z,12.53
2022-12-25T19:22:36.374Z,12.54
2022-12-25T19:25:03.510Z,12.55
2022-12-25T19:27:30.269Z,12.56
2022-12-25T19:29:57.027Z,12.58
2022-12-25T19:32:23.828Z,12.60
2022-12-25T19:34:50.722Z,12.60
2022-12-25T19:37:17.487Z,12.60
2022-12-25T19:39:46.738Z,12.62
2022-12-25T19:42:16.107Z,12.62
2022-12-25T19:44:43.401Z,12.64
2022-12-25T19:47:10.747Z,12.65
2022-12-25T19:49:37.582Z,12.66
2022-12-25T19:52:04.763Z,12.67
2022-12-25T19:54:31.670Z,12.68
2022-12-25T19:56:58.499Z,12.70
2022-12-25T19:59:25.273Z,12.72
2022-12-25T20:01:52.289Z,12.73
2022-12-25T20:04:19.315Z,12.74
2022-12-25T20:06:46.188Z,12.75
2022-12-25T20:09:20.764Z,12.76
2022-12-25T20:11:48.145Z,12.77
2022-12-25T20:14:16.495Z,12.79
2022-12-25T20:16:44.312Z,12.80
2022-12-25T20:19:15.141Z,12.82
2022-12-25T20:21:42.201Z,12.83
2022-12-25T20:24:10.907Z,12.84
2022-12-25T20:26:39.401Z,12.85
2022-12-25T20:29:06.797Z,12.87
2022-12-25T20:31:35.493Z,12.90
2022-12-25T20:34:08.852Z,12.92
2022-12-25T20:39:48.529Z,12.93
